createdAt,value
2017-08-08T00:00:15.719Z,0
2017-08-08T00:01:26.123Z,0
2017-08-08T00:02:36.461Z,0
2017-08-08T00:03:46.808Z,0
2017-08-08T00:04:57.165Z,0
2017-08-08T00:06:07.203Z,0
2017-08-08T00:07:17.605Z,0
2017-08-08T00:08:27.979Z,0
2017-08-08T00:09:38.348Z,0
2017-08-08T00:10:48.682Z,0
2017-08-08T00:11:59.772Z,0
2017-08-08T00:13:10.182Z,0
2017-08-08T00:14:20.536Z,0
2017-08-08T00:15:30.891Z,0
2017-08-08T00:16:41.239Z,0
2017-08-08T00:17:51.584Z,0
2017-08-08T00:19:01.972Z,0
2017-08-08T00:20:12.020Z,0
2017-08-08T00:21:22.369Z,0
2017-08-08T00:22:32.714Z,0
2017-08-08T00:23:43.064Z,0
2017-08-08T00:24:53.452Z,0
2017-08-08T00:26:03.792Z,0
2017-08-08T00:27:13.833Z,0
2017-08-08T00:28:24.173Z,0
2017-08-08T00:29:34.513Z,0
2017-08-08T00:30:44.861Z,0
2017-08-08T00:31:55.217Z,0
2017-08-08T00:33:05.246Z,0
2017-08-08T00:34:15.294Z,0
2017-08-08T00:35:25.681Z,0
2017-08-08T00:36:35.697Z,0
2017-08-08T00:37:45.715Z,0
2017-08-08T00:38:56.051Z,0
2017-08-08T00:40:06.078Z,0
2017-08-08T00:41:16.720Z,0
2017-08-08T00:42:27.069Z,0
2017-08-08T00:43:37.118Z,0
2017-08-08T00:44:47.456Z,0
2017-08-08T00:45:57.797Z,0
2017-08-08T00:47:08.184Z,0
2017-08-08T00:48:18.235Z,0
2017-08-08T00:49:28.573Z,0
2017-08-08T00:50:38.917Z,0
2017-08-08T00:51:48.963Z,0
2017-08-08T00:52:59.343Z,0
2017-08-08T00:54:09.707Z,0
2017-08-08T00:55:20.046Z,0
2017-08-08T00:56:30.384Z,0
2017-08-08T00:57:40.719Z,0
2017-08-08T00:58:51.120Z,0
2017-08-08T01:00:01.159Z,0
2017-08-08T01:01:11.505Z,0
2017-08-08T01:02:21.559Z,0
2017-08-08T01:03:31.902Z,0
2017-08-08T01:04:42.293Z,0
2017-08-08T01:05:52.642Z,0
2017-08-08T01:07:02.979Z,0
2017-08-08T01:08:13.327Z,0
2017-08-08T01:09:23.674Z,0
2017-08-08T01:10:33.746Z,0
2017-08-08T01:11:44.082Z,0
2017-08-08T01:12:54.422Z,0
2017-08-08T01:14:04.770Z,0
2017-08-08T01:15:15.125Z,0
2017-08-08T01:16:25.528Z,0
2017-08-08T01:17:35.880Z,0
2017-08-08T01:18:46.225Z,0
2017-08-08T01:19:56.285Z,0
2017-08-08T01:21:06.621Z,0
2017-08-08T01:22:16.389Z,0
2017-08-08T01:23:26.112Z,0
2017-08-08T01:24:36.469Z,0
2017-08-08T01:25:46.501Z,0
2017-08-08T01:26:56.853Z,0
2017-08-08T01:28:07.268Z,0
2017-08-08T01:29:17.621Z,0
2017-08-08T01:30:27.954Z,0
2017-08-08T01:31:37.667Z,0
2017-08-08T01:32:48.001Z,0
2017-08-08T01:33:58.386Z,0
2017-08-08T01:35:08.736Z,0
2017-08-08T01:36:19.073Z,0
2017-08-08T01:37:29.110Z,0
2017-08-08T01:38:39.154Z,0
2017-08-08T01:39:49.232Z,0
2017-08-08T01:40:59.267Z,0
2017-08-08T01:42:09.615Z,0
2017-08-08T01:43:19.645Z,0
2017-08-08T01:44:29.689Z,0
2017-08-08T01:45:39.786Z,0
2017-08-08T01:46:50.125Z,0
2017-08-08T01:48:00.481Z,0
2017-08-08T01:49:10.508Z,0
2017-08-08T01:50:20.855Z,0
2017-08-08T01:51:30.632Z,0
2017-08-08T01:52:40.974Z,0
2017-08-08T01:53:51.324Z,0
2017-08-08T01:55:01.669Z,0
2017-08-08T01:56:12.023Z,0
2017-08-08T01:57:22.416Z,0
2017-08-08T01:58:32.446Z,0
2017-08-08T01:59:42.798Z,0
2017-08-08T02:00:52.819Z,0
2017-08-08T02:02:02.857Z,0
2017-08-08T02:03:12.935Z,0
2017-08-08T02:04:23.265Z,0
2017-08-08T02:05:32.982Z,0
2017-08-08T02:06:43.313Z,0
2017-08-08T02:07:54.696Z,0
2017-08-08T02:09:05.079Z,0
2017-08-08T02:10:15.425Z,0
2017-08-08T02:11:25.756Z,0
2017-08-08T02:12:36.111Z,0
2017-08-08T02:13:46.137Z,0
2017-08-08T02:14:58.064Z,0
2017-08-08T02:16:08.418Z,0
2017-08-08T02:17:18.465Z,0
2017-08-08T02:18:28.814Z,0
2017-08-08T02:19:39.166Z,0
2017-08-08T02:20:49.559Z,0
2017-08-08T02:21:59.907Z,0
2017-08-08T02:23:10.264Z,0
2017-08-08T02:24:20.614Z,0
2017-08-08T02:25:30.968Z,0
2017-08-08T02:26:41.369Z,0
2017-08-08T02:27:51.709Z,0
2017-08-08T02:29:02.057Z,0
2017-08-08T02:30:12.094Z,0
2017-08-08T02:31:22.428Z,0
2017-08-08T02:32:32.824Z,0
2017-08-08T02:33:43.165Z,0
2017-08-08T02:34:53.492Z,0
2017-08-08T02:36:03.531Z,0
2017-08-08T02:37:15.789Z,0
2017-08-08T02:38:26.186Z,0
2017-08-08T02:39:36.533Z,0
2017-08-08T02:40:46.881Z,0
2017-08-08T02:41:57.223Z,0
2017-08-08T02:43:07.573Z,0
2017-08-08T02:44:17.345Z,0
2017-08-08T02:45:27.071Z,0
2017-08-08T02:46:37.109Z,0
2017-08-08T02:47:47.468Z,0
2017-08-08T02:48:57.809Z,0
2017-08-08T02:50:08.224Z,0
2017-08-08T02:51:18.563Z,0
2017-08-08T02:52:28.923Z,0
2017-08-08T02:53:39.261Z,0
2017-08-08T02:54:49.606Z,0
2017-08-08T02:55:59.994Z,0
2017-08-08T02:57:10.330Z,0
2017-08-08T02:58:20.357Z,0
2017-08-08T02:59:30.394Z,0
2017-08-08T03:00:40.734Z,0
2017-08-08T03:01:51.131Z,0
2017-08-08T03:33:43.425Z,0
2017-08-08T03:34:53.446Z,0
2017-08-08T03:36:03.774Z,0
2017-08-08T03:37:14.105Z,5
2017-08-08T03:38:23.809Z,5
2017-08-08T03:39:34.220Z,5
2017-08-08T03:40:44.558Z,5
2017-08-08T03:41:54.585Z,5
2017-08-08T03:43:04.911Z,5
2017-08-08T03:44:14.941Z,5
2017-08-08T03:45:25.333Z,10
2017-08-08T03:46:35.374Z,10
2017-08-08T03:47:45.408Z,10
2017-08-08T03:48:55.424Z,10
2017-08-08T03:50:05.765Z,15
2017-08-08T03:51:15.838Z,15
2017-08-08T03:52:26.182Z,15
2017-08-08T03:53:36.535Z,15
2017-08-08T03:54:46.571Z,20
2017-08-08T03:55:56.281Z,20
2017-08-08T03:57:06.695Z,25
2017-08-08T03:58:17.033Z,25
2017-08-08T03:59:26.740Z,25
2017-08-08T04:00:37.101Z,25
2017-08-08T04:01:47.130Z,25
2017-08-08T04:02:57.521Z,25
2017-08-08T04:04:07.864Z,30
2017-08-08T04:05:18.198Z,30
2017-08-08T04:06:28.544Z,30
2017-08-08T04:07:38.873Z,30
2017-08-08T04:08:49.256Z,35
2017-08-08T04:09:59.275Z,35
2017-08-08T04:11:09.618Z,40
2017-08-08T04:12:19.959Z,40
2017-08-08T04:13:30.303Z,40
2017-08-08T04:14:40.386Z,40
2017-08-08T04:15:50.727Z,35
2017-08-08T04:17:01.097Z,35
2017-08-08T04:18:11.444Z,35
2017-08-08T04:19:21.788Z,35
2017-08-08T04:20:32.190Z,35
2017-08-08T04:21:42.546Z,35
2017-08-08T04:22:52.577Z,30
2017-08-08T04:24:02.916Z,35
2017-08-08T04:25:12.940Z,30
2017-08-08T04:26:23.276Z,35
2017-08-08T04:27:33.612Z,35
2017-08-08T04:28:43.955Z,40
2017-08-08T04:29:54.360Z,35
2017-08-08T04:31:06.009Z,35
2017-08-08T04:32:16.353Z,35
2017-08-08T04:33:27.529Z,35
2017-08-08T04:34:37.562Z,30
2017-08-08T04:35:47.637Z,30
2017-08-08T04:36:57.983Z,35
2017-08-08T04:38:08.932Z,40
2017-08-08T04:39:18.662Z,40
2017-08-08T04:40:28.692Z,40
2017-08-08T04:41:38.773Z,45
2017-08-08T04:42:49.853Z,40
2017-08-08T04:43:59.569Z,45
2017-08-08T04:45:09.928Z,65
2017-08-08T04:46:20.986Z,70
2017-08-08T04:47:31.378Z,80
2017-08-08T04:48:41.423Z,90
2017-08-08T04:49:51.760Z,95
2017-08-08T04:51:04.111Z,65
2017-08-08T04:52:14.453Z,80
2017-08-08T04:53:24.855Z,85
2017-08-08T04:54:34.895Z,70
2017-08-08T04:55:44.950Z,70
2017-08-08T04:56:55.299Z,70
2017-08-08T04:58:05.645Z,70
2017-08-08T04:59:15.722Z,70
2017-08-08T05:00:25.762Z,60
2017-08-08T05:01:36.101Z,60
2017-08-08T05:02:47.289Z,80
2017-08-08T05:03:57.622Z,75
2017-08-08T05:05:08.023Z,85
2017-08-08T05:06:18.374Z,65
2017-08-08T05:07:28.413Z,70
2017-08-08T05:08:38.785Z,70
2017-08-08T05:09:48.808Z,70
2017-08-08T05:10:59.208Z,70
2017-08-08T05:12:09.251Z,55
2017-08-08T05:13:19.586Z,45
2017-08-08T05:14:29.931Z,50
2017-08-08T05:15:40.277Z,45
2017-08-08T05:16:50.661Z,45
2017-08-08T05:18:00.694Z,50
2017-08-08T05:19:11.044Z,45
2017-08-08T05:20:21.391Z,45
2017-08-08T05:21:31.741Z,50
2017-08-08T05:22:41.811Z,65
2017-08-08T05:23:51.856Z,55
2017-08-08T05:25:01.890Z,60
2017-08-08T05:26:11.914Z,65
2017-08-08T05:27:21.937Z,85
2017-08-08T05:28:32.024Z,90
2017-08-08T05:29:42.361Z,115
2017-08-08T05:30:52.707Z,150
2017-08-08T05:32:03.071Z,125
2017-08-08T05:33:13.405Z,130
2017-08-08T05:34:23.793Z,115
2017-08-08T05:35:34.149Z,110
2017-08-08T05:36:44.499Z,70
2017-08-08T05:37:54.523Z,85
2017-08-08T05:39:06.038Z,100
2017-08-08T05:40:16.439Z,110
2017-08-08T05:41:26.776Z,115
2017-08-08T05:42:36.817Z,80
2017-08-08T05:43:47.154Z,95
2017-08-08T05:44:57.507Z,85
2017-08-08T05:46:07.600Z,90
2017-08-08T05:47:17.955Z,85
2017-08-08T05:48:28.035Z,75
2017-08-08T05:49:38.382Z,80
2017-08-08T05:50:48.735Z,75
2017-08-08T05:51:59.129Z,75
2017-08-08T05:53:09.473Z,65
2017-08-08T05:54:19.506Z,60
2017-08-08T05:55:29.840Z,70
2017-08-08T05:56:39.562Z,75
2017-08-08T05:57:49.638Z,70
2017-08-08T05:58:59.994Z,75
2017-08-08T06:00:10.026Z,95
2017-08-08T06:01:20.363Z,95
2017-08-08T06:02:30.386Z,100
2017-08-08T06:03:40.782Z,75
2017-08-08T06:04:50.802Z,80
2017-08-08T06:06:02.285Z,85
2017-08-08T06:07:12.620Z,90
2017-08-08T06:08:22.971Z,105
2017-08-08T06:09:33.381Z,95
2017-08-08T06:10:43.737Z,100
2017-08-08T06:11:54.100Z,110
2017-08-08T06:13:04.441Z,100
2017-08-08T06:14:14.473Z,95
2017-08-08T06:15:24.865Z,90
2017-08-08T06:16:34.900Z,90
2017-08-08T06:17:45.253Z,80
2017-08-08T06:18:55.625Z,90
2017-08-08T06:20:05.996Z,95
2017-08-08T06:21:16.405Z,110
2017-08-08T06:22:26.742Z,115
2017-08-08T06:23:36.761Z,115
2017-08-08T06:24:46.481Z,120
2017-08-08T06:25:56.828Z,115
2017-08-08T06:27:06.921Z,110
2017-08-08T06:28:17.276Z,135
2017-08-08T06:29:27.632Z,135
2017-08-08T06:30:37.672Z,130
2017-08-08T06:31:48.003Z,130
2017-08-08T06:32:58.408Z,140
2017-08-08T06:34:08.755Z,140
2017-08-08T06:35:19.129Z,130
2017-08-08T06:36:29.167Z,130
2017-08-08T06:37:39.508Z,125
2017-08-08T06:38:49.941Z,130
2017-08-08T06:40:00.290Z,125
2017-08-08T06:41:10.329Z,120
2017-08-08T06:42:20.377Z,135
2017-08-08T06:43:30.719Z,135
2017-08-08T06:44:41.117Z,125
2017-08-08T06:45:51.147Z,120
2017-08-08T06:47:01.486Z,135
2017-08-08T06:48:11.844Z,145
2017-08-08T06:49:22.181Z,140
2017-08-08T06:50:32.582Z,160
2017-08-08T06:51:42.614Z,170
2017-08-08T06:52:52.962Z,145
2017-08-08T06:54:03.317Z,135
2017-08-08T06:55:13.669Z,150
2017-08-08T06:56:24.068Z,125
2017-08-08T06:57:34.411Z,115
2017-08-08T06:58:44.445Z,125
2017-08-08T06:59:54.791Z,110
2017-08-08T07:01:04.825Z,125
2017-08-08T07:02:15.220Z,120
2017-08-08T07:03:25.264Z,135
2017-08-08T07:04:35.607Z,135
2017-08-08T07:05:45.640Z,135
2017-08-08T07:06:55.977Z,125
2017-08-08T07:08:06.063Z,125
2017-08-08T07:09:16.464Z,120
2017-08-08T07:10:26.857Z,130
2017-08-08T07:11:36.899Z,110
2017-08-08T07:12:46.949Z,130
2017-08-08T07:13:57.044Z,115
2017-08-08T07:15:07.093Z,105
2017-08-08T07:16:17.134Z,105
2017-08-08T07:17:27.480Z,95
2017-08-08T07:18:37.506Z,90
2017-08-08T07:19:47.905Z,100
2017-08-08T07:20:57.613Z,95
2017-08-08T07:22:07.635Z,110
2017-08-08T07:23:17.363Z,125
2017-08-08T07:24:27.713Z,110
2017-08-08T07:25:37.481Z,105
2017-08-08T07:26:47.842Z,105
2017-08-08T07:27:57.569Z,115
2017-08-08T07:29:07.911Z,110
2017-08-08T07:30:17.968Z,105
2017-08-08T07:31:28.038Z,100
2017-08-08T07:32:38.371Z,85
2017-08-08T07:33:47.776Z,90
2017-08-08T07:34:59.336Z,90
2017-08-08T07:36:09.662Z,95
2017-08-08T07:37:20.053Z,90
2017-08-08T07:38:29.797Z,80
2017-08-08T07:39:40.147Z,85
2017-08-08T07:40:50.488Z,105
2017-08-08T07:42:00.828Z,110
2017-08-08T07:43:11.225Z,110
2017-08-08T07:44:21.570Z,120
2017-08-08T07:45:31.927Z,145
2017-08-08T07:46:41.961Z,135
2017-08-08T07:47:52.295Z,125
2017-08-08T07:49:02.685Z,120
2017-08-08T07:50:12.416Z,125
2017-08-08T07:51:22.774Z,120
2017-08-08T07:52:33.128Z,130
2017-08-08T07:53:43.482Z,130
2017-08-08T07:54:53.885Z,140
2017-08-08T07:56:03.612Z,150
2017-08-08T07:57:13.638Z,145
2017-08-08T07:58:23.980Z,135
2017-08-08T07:59:34.338Z,150
2017-08-08T08:00:44.730Z,155
2017-08-08T08:01:55.076Z,145
2017-08-08T08:03:05.123Z,155
2017-08-08T08:04:15.464Z,180
2017-08-08T08:05:25.511Z,185
2017-08-08T08:06:35.912Z,170
2017-08-08T08:07:46.250Z,210
2017-08-08T08:08:56.297Z,240
2017-08-08T08:10:06.319Z,255
2017-08-08T08:11:16.670Z,245
2017-08-08T08:12:27.052Z,235
2017-08-08T08:13:37.404Z,245
2017-08-08T08:14:47.420Z,245
2017-08-08T08:15:57.775Z,235
2017-08-08T08:17:08.147Z,275
2017-08-08T08:18:18.530Z,235
2017-08-08T08:19:28.566Z,280
2017-08-08T08:20:38.920Z,240
2017-08-08T08:21:49.261Z,240
2017-08-08T08:22:59.296Z,235
2017-08-08T08:24:09.702Z,205
2017-08-08T08:25:19.733Z,225
2017-08-08T08:26:30.084Z,205
2017-08-08T08:27:39.808Z,185
2017-08-08T08:28:49.841Z,215
2017-08-08T08:29:59.909Z,210
2017-08-08T08:31:09.938Z,215
2017-08-08T08:32:19.990Z,205
2017-08-08T08:33:30.022Z,220
2017-08-08T08:34:40.369Z,235
2017-08-08T08:35:50.447Z,220
2017-08-08T08:37:00.483Z,210
2017-08-08T08:38:10.827Z,215
2017-08-08T08:39:21.185Z,215
2017-08-08T08:40:31.262Z,175
2017-08-08T08:41:41.670Z,240
2017-08-08T08:42:51.997Z,220
2017-08-08T08:44:02.348Z,210
2017-08-08T08:45:12.682Z,195
2017-08-08T08:46:24.282Z,285
2017-08-08T08:47:34.675Z,240
2017-08-08T08:48:45.037Z,205
2017-08-08T08:49:55.069Z,280
2017-08-08T08:51:05.115Z,255
2017-08-08T08:52:17.246Z,190
2017-08-08T08:53:27.642Z,250
2017-08-08T08:54:38.001Z,290
2017-08-08T08:55:48.338Z,215
2017-08-08T08:56:58.731Z,255
2017-08-08T08:58:09.076Z,335
2017-08-08T08:59:18.880Z,260
2017-08-08T09:00:28.923Z,215
2017-08-08T09:01:38.676Z,310
2017-08-08T09:02:48.728Z,320
2017-08-08T09:03:59.080Z,265
2017-08-08T09:05:09.480Z,270
2017-08-08T09:06:19.504Z,280
2017-08-08T09:07:29.859Z,285
2017-08-08T09:08:40.206Z,230
2017-08-08T09:09:50.557Z,215
2017-08-08T09:11:00.972Z,245
2017-08-08T09:12:11.913Z,245
2017-08-08T09:13:22.277Z,215
2017-08-08T09:14:31.689Z,255
2017-08-08T09:15:41.719Z,250
2017-08-08T09:16:51.788Z,235
2017-08-08T09:18:01.832Z,275
2017-08-08T09:19:11.873Z,270
2017-08-08T09:20:21.907Z,260
2017-08-08T09:21:32.266Z,320
2017-08-08T09:22:42.349Z,260
2017-08-08T09:23:52.409Z,250
2017-08-08T09:25:02.447Z,330
2017-08-08T09:26:12.806Z,350
2017-08-08T09:27:23.171Z,255
2017-08-08T09:28:33.253Z,255
2017-08-08T09:29:43.599Z,260
2017-08-08T09:30:53.642Z,275
2017-08-08T09:32:03.995Z,280
2017-08-08T09:33:14.346Z,315
2017-08-08T09:34:24.451Z,250
2017-08-08T09:35:34.808Z,255
2017-08-08T09:36:44.845Z,305
2017-08-08T09:37:55.188Z,305
2017-08-08T09:39:05.537Z,315
2017-08-08T09:40:16.010Z,305
2017-08-08T09:41:25.729Z,285
2017-08-08T09:42:35.768Z,190
2017-08-08T09:43:45.820Z,270
2017-08-08T09:44:56.177Z,280
2017-08-08T09:46:06.530Z,290
2017-08-08T09:47:16.580Z,285
2017-08-08T09:48:26.623Z,270
2017-08-08T09:49:36.665Z,255
2017-08-08T09:50:47.021Z,255
2017-08-08T09:51:57.111Z,255
2017-08-08T09:53:07.149Z,245
2017-08-08T09:54:17.500Z,205
2017-08-08T09:55:27.858Z,295
2017-08-08T09:56:38.209Z,290
2017-08-08T09:57:48.605Z,210
2017-08-08T09:58:58.657Z,280
2017-08-08T10:00:08.996Z,275
2017-08-08T10:01:19.058Z,260
2017-08-08T10:02:29.101Z,240
2017-08-08T10:03:39.493Z,190
2017-08-08T10:04:49.889Z,285
2017-08-08T10:06:00.234Z,340
2017-08-08T10:07:10.589Z,315
2017-08-08T10:08:20.621Z,225
2017-08-08T10:09:31.023Z,250
2017-08-08T10:10:41.371Z,280
2017-08-08T10:11:51.402Z,225
2017-08-08T10:13:01.449Z,290
2017-08-08T10:14:11.792Z,285
2017-08-08T10:15:21.887Z,300
2017-08-08T10:16:31.924Z,240
2017-08-08T10:17:41.947Z,320
2017-08-08T10:18:52.292Z,320
2017-08-08T10:20:04.646Z,295
2017-08-08T10:21:14.736Z,310
2017-08-08T10:22:24.782Z,255
2017-08-08T10:23:34.816Z,335
2017-08-08T10:24:45.164Z,230
2017-08-08T10:25:55.532Z,295
2017-08-08T10:27:06.259Z,240
2017-08-08T10:28:16.305Z,300
2017-08-08T10:29:26.657Z,250
2017-08-08T10:30:37.000Z,330
2017-08-08T10:31:47.356Z,335
2017-08-08T10:32:57.760Z,275
2017-08-08T10:34:08.125Z,310
2017-08-08T10:35:18.164Z,365
2017-08-08T10:36:28.515Z,300
2017-08-08T10:37:38.240Z,310
2017-08-08T10:38:48.654Z,355
2017-08-08T10:39:59.013Z,280
2017-08-08T10:41:09.038Z,260
2017-08-08T10:42:19.391Z,280
2017-08-08T10:43:29.436Z,345
2017-08-08T10:44:39.482Z,285
2017-08-08T10:45:49.832Z,250
2017-08-08T10:47:00.243Z,240
2017-08-08T10:48:11.390Z,235
2017-08-08T10:49:21.734Z,230
2017-08-08T10:50:32.088Z,240
2017-08-08T10:51:42.431Z,240
2017-08-08T10:52:52.526Z,250
2017-08-08T10:54:02.559Z,245
2017-08-08T10:55:12.907Z,225
2017-08-08T10:56:23.267Z,205
2017-08-08T10:57:33.633Z,185
2017-08-08T10:58:43.413Z,170
2017-08-08T10:59:53.458Z,185
2017-08-08T11:01:03.180Z,190
2017-08-08T11:02:13.547Z,200
2017-08-08T11:03:24.077Z,205
2017-08-08T11:04:34.175Z,205
2017-08-08T11:05:44.508Z,200
2017-08-08T11:06:54.559Z,210
2017-08-08T11:08:04.916Z,220
2017-08-08T11:09:15.287Z,215
2017-08-08T11:10:25.681Z,230
2017-08-08T11:11:36.013Z,220
2017-08-08T11:12:48.110Z,255
2017-08-08T11:13:58.501Z,210
2017-08-08T11:15:08.552Z,215
2017-08-08T11:16:18.950Z,205
2017-08-08T11:17:29.307Z,200
2017-08-08T11:18:39.806Z,210
2017-08-08T11:19:50.163Z,250
2017-08-08T11:21:00.194Z,235
2017-08-08T11:22:10.595Z,215
2017-08-08T11:23:21.533Z,225
2017-08-08T11:24:31.881Z,215
2017-08-08T11:25:42.233Z,235
2017-08-08T11:26:52.567Z,240
2017-08-08T11:28:02.656Z,245
2017-08-08T11:29:13.020Z,255
2017-08-08T11:30:23.385Z,240
2017-08-08T11:31:33.748Z,225
2017-08-08T11:32:43.478Z,210
2017-08-08T11:33:53.889Z,195
2017-08-08T11:35:04.257Z,225
2017-08-08T11:36:14.591Z,255
2017-08-08T11:37:24.646Z,375
2017-08-08T11:38:35.014Z,270
2017-08-08T11:39:45.434Z,275
2017-08-08T11:40:55.792Z,275
2017-08-08T11:42:06.149Z,260
2017-08-08T11:43:16.508Z,250
2017-08-08T11:44:26.866Z,230
2017-08-08T11:45:37.261Z,215
2017-08-08T11:46:47.631Z,245
2017-08-08T11:47:58.021Z,255
2017-08-08T11:49:08.397Z,270
2017-08-08T11:50:18.437Z,270
2017-08-08T11:51:29.791Z,255
2017-08-08T11:52:40.140Z,270
2017-08-08T11:53:50.539Z,260
2017-08-08T11:55:00.568Z,255
2017-08-08T11:56:10.599Z,235
2017-08-08T11:57:20.706Z,240
2017-08-08T11:58:31.079Z,245
2017-08-08T11:59:41.105Z,255
2017-08-08T12:00:53.161Z,245
2017-08-08T12:02:03.522Z,250
2017-08-08T12:03:13.921Z,255
2017-08-08T12:04:24.283Z,235
2017-08-08T12:05:34.637Z,240
2017-08-08T12:06:44.999Z,250
2017-08-08T12:07:55.361Z,245
2017-08-08T12:09:05.449Z,250
2017-08-08T12:10:15.493Z,285
2017-08-08T12:11:25.209Z,255
2017-08-08T12:12:35.255Z,255
2017-08-08T12:13:45.291Z,265
2017-08-08T12:14:56.338Z,260
2017-08-08T12:16:06.686Z,255
2017-08-08T12:17:17.035Z,225
2017-08-08T12:18:27.088Z,225
2017-08-08T12:19:37.428Z,215
2017-08-08T12:20:47.521Z,220
2017-08-08T12:21:57.876Z,240
2017-08-08T12:23:07.906Z,255
2017-08-08T12:24:17.634Z,255
2017-08-08T12:25:27.984Z,230
2017-08-08T12:26:39.163Z,215
2017-08-08T12:27:49.507Z,200
2017-08-08T12:28:59.864Z,200
2017-08-08T12:30:09.903Z,295
2017-08-08T12:31:22.133Z,205
2017-08-08T12:32:32.234Z,200
2017-08-08T12:33:42.298Z,195
2017-08-08T12:34:52.663Z,190
2017-08-08T12:36:02.706Z,185
2017-08-08T12:37:13.072Z,200
2017-08-08T12:38:23.105Z,240
2017-08-08T12:39:33.468Z,240
2017-08-08T12:40:43.501Z,240
2017-08-08T12:41:53.588Z,235
2017-08-08T12:43:03.633Z,225
2017-08-08T12:44:13.999Z,230
2017-08-08T12:45:25.936Z,220
2017-08-08T12:46:36.298Z,205
2017-08-08T12:47:46.649Z,220
2017-08-08T12:48:57.010Z,215
2017-08-08T12:50:07.375Z,225
2017-08-08T12:51:17.779Z,215
2017-08-08T12:52:27.819Z,230
2017-08-08T12:53:39.721Z,240
2017-08-08T12:54:49.442Z,235
2017-08-08T12:55:59.785Z,225
2017-08-08T12:57:09.574Z,210
2017-08-08T12:58:19.926Z,195
2017-08-08T12:59:30.274Z,190
2017-08-08T13:00:40.324Z,185
2017-08-08T13:01:50.674Z,190
2017-08-08T13:03:01.171Z,185
2017-08-08T13:04:11.228Z,195
2017-08-08T13:05:21.813Z,200
2017-08-08T13:06:32.173Z,215
2017-08-08T13:07:42.523Z,220
2017-08-08T13:08:52.952Z,220
2017-08-08T13:10:02.997Z,205
2017-08-08T13:11:13.336Z,205
2017-08-08T13:12:23.679Z,195
2017-08-08T13:13:33.726Z,185
2017-08-08T13:14:43.834Z,170
2017-08-08T13:15:53.880Z,165
2017-08-08T13:17:03.913Z,190
2017-08-08T13:18:14.257Z,200
2017-08-08T13:19:24.287Z,205
2017-08-08T13:20:34.692Z,220
2017-08-08T13:21:45.048Z,220
2017-08-08T13:22:55.071Z,225
2017-08-08T13:24:05.446Z,225
2017-08-08T13:25:15.790Z,230
2017-08-08T13:26:26.208Z,215
2017-08-08T13:27:35.921Z,200
2017-08-08T13:28:46.483Z,195
2017-08-08T13:29:56.865Z,180
2017-08-08T13:31:07.224Z,175
2017-08-08T13:32:17.640Z,185
2017-08-08T13:33:27.996Z,185
2017-08-08T13:34:38.353Z,200
2017-08-08T13:35:48.710Z,205
2017-08-08T13:36:59.061Z,190
2017-08-08T13:38:09.446Z,205
2017-08-08T13:39:21.480Z,205
2017-08-08T13:40:31.508Z,205
2017-08-08T13:41:41.855Z,225
2017-08-08T13:42:52.242Z,215
2017-08-08T13:44:02.327Z,200
2017-08-08T13:45:12.688Z,195
2017-08-08T13:46:22.727Z,195
2017-08-08T13:47:33.085Z,195
2017-08-08T13:48:43.375Z,190
2017-08-08T13:49:53.794Z,235
2017-08-08T13:51:04.310Z,225
2017-08-08T13:52:14.358Z,225
2017-08-08T13:53:24.722Z,215
2017-08-08T13:54:35.064Z,205
2017-08-08T13:55:45.353Z,215
2017-08-08T13:56:55.719Z,205
2017-08-08T13:58:05.780Z,220
2017-08-08T13:59:16.153Z,220
2017-08-08T14:00:26.508Z,210
2017-08-08T14:01:36.906Z,205
2017-08-08T14:02:46.957Z,250
2017-08-08T14:03:57.318Z,240
2017-08-08T14:05:07.670Z,200
2017-08-08T14:06:17.742Z,205
2017-08-08T14:07:28.909Z,200
2017-08-08T14:08:38.957Z,200
2017-08-08T14:09:49.024Z,210
2017-08-08T14:11:00.431Z,215
2017-08-08T14:12:10.792Z,275
2017-08-08T14:13:21.202Z,205
2017-08-08T14:14:31.559Z,190
2017-08-08T14:15:41.929Z,235
2017-08-08T14:16:52.310Z,155
2017-08-08T14:18:02.672Z,160
2017-08-08T14:19:13.077Z,180
2017-08-08T14:20:22.804Z,220
2017-08-08T14:21:33.192Z,180
2017-08-08T14:22:43.557Z,180
2017-08-08T14:23:53.907Z,165
2017-08-08T14:25:04.320Z,160
2017-08-08T14:26:14.378Z,175
2017-08-08T14:27:24.714Z,185
2017-08-08T14:28:34.765Z,180
2017-08-08T14:29:45.171Z,175
2017-08-08T14:30:56.291Z,170
2017-08-08T14:32:06.639Z,180
2017-08-08T14:33:16.709Z,185
2017-08-08T14:34:27.064Z,190
2017-08-08T14:35:37.427Z,185
2017-08-08T14:36:47.854Z,225
2017-08-08T14:37:58.220Z,180
2017-08-08T14:39:08.575Z,180
2017-08-08T14:40:18.623Z,190
2017-08-08T14:41:28.977Z,210
2017-08-08T14:42:39.074Z,175
2017-08-08T14:43:49.435Z,175
2017-08-08T14:44:59.778Z,180
2017-08-08T14:46:10.139Z,170
2017-08-08T14:47:20.500Z,170
2017-08-08T14:48:30.904Z,170
2017-08-08T14:49:40.944Z,170
2017-08-08T14:50:50.976Z,175
2017-08-08T14:52:01.047Z,170
2017-08-08T14:53:11.093Z,185
2017-08-08T14:54:21.521Z,230
2017-08-08T14:55:31.884Z,245
2017-08-08T14:56:43.589Z,210
2017-08-08T14:57:53.949Z,250
2017-08-08T14:59:04.302Z,255
2017-08-08T15:00:14.714Z,260
2017-08-08T15:01:25.086Z,255
2017-08-08T15:02:35.134Z,195
2017-08-08T15:03:46.694Z,185
2017-08-08T15:04:57.077Z,165
2017-08-08T15:06:07.484Z,150
2017-08-08T15:07:17.825Z,135
2017-08-08T15:08:28.180Z,120
2017-08-08T15:09:38.553Z,130
2017-08-08T15:10:48.906Z,135
2017-08-08T15:11:59.315Z,130
2017-08-08T15:13:09.057Z,125
2017-08-08T15:14:19.096Z,125
2017-08-08T15:15:29.451Z,120
2017-08-08T15:16:39.808Z,120
2017-08-08T15:17:50.220Z,120
2017-08-08T15:19:02.721Z,170
2017-08-08T15:20:12.457Z,135
2017-08-08T15:21:22.499Z,140
2017-08-08T15:22:32.542Z,150
2017-08-08T15:23:42.947Z,150
2017-08-08T15:24:53.301Z,160
2017-08-08T15:26:03.351Z,170
2017-08-08T15:27:13.409Z,220
2017-08-08T15:28:23.772Z,190
2017-08-08T15:29:34.176Z,195
2017-08-08T15:30:44.529Z,180
2017-08-08T15:31:54.884Z,180
2017-08-08T15:33:04.921Z,160
2017-08-08T15:34:14.971Z,180
2017-08-08T15:35:25.368Z,170
2017-08-08T15:36:34.785Z,195
2017-08-08T15:37:44.816Z,190
2017-08-08T15:38:55.175Z,170
2017-08-08T15:40:05.544Z,185
2017-08-08T15:41:15.957Z,175
2017-08-08T15:42:26.004Z,155
2017-08-08T15:43:36.354Z,145
2017-08-08T15:44:46.711Z,145
2017-08-08T15:45:57.084Z,155
2017-08-08T15:47:07.484Z,155
2017-08-08T15:48:16.901Z,155
2017-08-08T15:49:26.939Z,185
2017-08-08T15:50:37.315Z,180
2017-08-08T15:51:47.663Z,175
2017-08-08T15:52:58.064Z,170
2017-08-08T15:54:08.431Z,135
2017-08-08T15:55:18.783Z,150
2017-08-08T15:56:29.146Z,145
2017-08-08T15:57:39.498Z,145
2017-08-08T15:58:49.911Z,145
2017-08-08T16:00:00.275Z,140
2017-08-08T16:01:10.343Z,145
2017-08-08T16:02:20.701Z,150
2017-08-08T16:03:30.747Z,165
2017-08-08T16:04:40.533Z,175
2017-08-08T16:05:50.881Z,160
2017-08-08T16:07:00.932Z,145
2017-08-08T16:08:10.976Z,130
2017-08-08T16:09:21.335Z,155
2017-08-08T16:10:31.741Z,115
2017-08-08T16:11:42.103Z,110
2017-08-08T16:12:52.183Z,115
2017-08-08T16:14:02.527Z,120
2017-08-08T16:15:12.883Z,125
2017-08-08T16:16:23.301Z,125
2017-08-08T16:17:33.347Z,120
2017-08-08T16:18:43.707Z,115
2017-08-08T16:19:55.891Z,110
2017-08-08T16:21:06.252Z,105
2017-08-08T16:22:16.369Z,105
2017-08-08T16:23:26.701Z,100
2017-08-08T16:24:36.740Z,100
2017-08-08T16:25:47.115Z,115
2017-08-08T16:26:57.165Z,115
2017-08-08T16:28:07.584Z,100
2017-08-08T16:29:17.954Z,105
2017-08-08T16:30:28.002Z,110
2017-08-08T16:31:38.047Z,110
2017-08-08T16:32:48.406Z,105
2017-08-08T16:33:58.814Z,100
2017-08-08T16:35:09.162Z,95
2017-08-08T16:36:19.224Z,90
2017-08-08T16:37:29.553Z,100
2017-08-08T16:38:39.901Z,95
2017-08-08T16:39:50.308Z,90
2017-08-08T16:41:00.663Z,95
2017-08-08T16:42:11.037Z,90
2017-08-08T16:43:21.068Z,100
2017-08-08T16:44:31.474Z,90
2017-08-08T16:45:41.871Z,90
2017-08-08T16:46:52.233Z,90
2017-08-08T16:48:02.583Z,95
2017-08-08T16:49:12.638Z,90
2017-08-08T16:50:23.000Z,90
2017-08-08T16:51:32.773Z,85
2017-08-08T16:52:42.842Z,85
2017-08-08T16:53:53.212Z,80
2017-08-08T16:55:03.284Z,80
2017-08-08T16:56:13.645Z,75
2017-08-08T16:57:23.749Z,80